LGMT

Details ICAO LGMT (MJT)
Name Mitilini
Region Greece
Timezone Europe/Athens (UTC+3.0)
Plans Departing 48
Arriving 65
Stats Elevation 60 ft / 18 m (AMSL)
Location 39.065833° 26.591943°
Runways 1
Magnetic Variation 4.966° E
Sunrise 2018-05-27 02:53:40 UTC / 2018-05-27 05:53:40 Local
Sunset 2018-05-27 17:30:46 UTC / 2018-05-27 20:30:46 Local
Advertisement - Login to hide

Runways

ID Width Length Bearing (true) Bearing (mag) Surface Threshold Offset Overrun Length
14 148 ft / 45 m 7,899 ft / 2,408 m 147.79° 142.82° Asphalt 269 ft / 82 m 200 ft / 61 m
32 148 ft / 45 m 7,899 ft / 2,408 m 327.80° 322.83° Asphalt 1,755 ft / 535 m 165 ft / 50 m

Map

Weather


0- 5 10 15 20 25 30 35+ Temperature / ° C

Clouds and Precipitation
Forecast for 2018-05-27 00:00 UTC. Updated 3 hours ago

Ground ~20,000 ft ~40,000 ft Winds

METAR

LGMT 270150Z 35012KT 300V010 9999 FEW020 21/17 Q1013

TAF

Not found

Frequencies

Tower 123.85 MHz TWR
Approach 123.85 MHz APP
Warning: Do not use this data for real-world aviation or navigation. No guarantee of current accuracy is given.